Time;durP1;ratioP1;P1;durP2;ratioP2;P2;SDS_P1;SDS_P2;PMS_P1;PMS_P2;Temp;Humidity;BMP_temperature;BMP_pressure;BME280_temperature;BME280_humidity;BME280_pressure;Samples;Min_cycle;Max_cycle;Signal;HPM_P1;HPM_P2
2023/05/13 00:00:36;;;;;;;23.00;13.90;;;;;;;11.01;100.00;101593.09;5084593;28;20048;-72
2023/05/13 00:03:03;;;;;;;22.77;13.13;;;;;;;10.95;100.00;101578.03;5085083;28;20055;-71
2023/05/13 00:05:30;;;;;;;23.63;13.88;;;;;;;11.00;100.00;101594.31;5084661;28;20044;-72
2023/05/13 00:08:00;;;;;;;22.38;12.88;;;;;;;10.97;100.00;101594.31;5085176;28;20056;-72
2023/05/13 00:10:27;;;;;;;27.20;12.57;;;;;;;10.91;100.00;101593.13;5085217;28;20074;-71
2023/05/13 00:12:53;;;;;;;20.20;11.77;;;;;;;10.88;100.00;101594.72;5085372;28;20058;-72
2023/05/13 00:15:20;;;;;;;22.55;12.90;;;;;;;10.84;100.00;101593.91;5063796;28;20048;-71
2023/05/13 00:17:46;;;;;;;22.40;12.77;;;;;;;10.83;100.00;101597.91;5086488;28;20059;-70
2023/05/13 00:20:13;;;;;;;19.85;13.32;;;;;;;10.86;100.00;101599.88;5084405;28;20086;-70
2023/05/13 00:22:39;;;;;;;23.85;14.68;;;;;;;10.86;100.00;101599.88;5087774;28;20048;-70
2023/05/13 00:25:06;;;;;;;21.73;13.10;;;;;;;10.84;100.00;101593.91;5086366;28;20044;-70
2023/05/13 00:27:33;;;;;;;20.90;13.38;;;;;;;10.82;100.00;101599.09;5059482;28;20104;-70
2023/05/13 00:30:00;;;;;;;25.13;13.18;;;;;;;10.81;100.00;101599.50;5080504;28;20048;-70
2023/05/13 00:32:26;;;;;;;22.10;12.52;;;;;;;10.73;100.00;101589.56;5084791;28;20052;-71
2023/05/13 00:34:53;;;;;;;19.75;12.48;;;;;;;10.74;100.00;101597.50;5085231;28;20101;-73
2023/05/13 00:37:19;;;;;;;21.85;13.40;;;;;;;10.73;100.00;101592.34;5084894;28;20047;-72
2023/05/13 00:39:46;;;;;;;21.80;12.55;;;;;;;10.73;100.00;101592.34;5065188;28;20043;-72
2023/05/13 00:42:12;;;;;;;26.63;14.80;;;;;;;10.68;100.00;101585.19;5078251;28;20048;-73
2023/05/13 00:44:39;;;;;;;24.48;13.02;;;;;;;10.66;100.00;101586.75;5085960;28;20528;-70
2023/05/13 00:47:06;;;;;;;21.77;12.65;;;;;;;10.61;100.00;101590.75;5085873;28;20494;-70
2023/05/13 00:49:33;;;;;;;20.27;12.80;;;;;;;10.58;100.00;101583.22;5079867;28;20987;-72
2023/05/13 00:52:00;;;;;;;21.42;13.57;;;;;;;10.56;100.00;101593.94;5089630;28;20122;-72
2023/05/13 00:54:30;;;;;;;19.88;12.45;;;;;;;10.51;100.00;101590.75;5086307;28;20058;-70
2023/05/13 00:56:58;;;;;;;25.10;12.48;;;;;;;10.46;100.00;101589.16;5085490;28;20051;-72
2023/05/13 00:59:27;;;;;;;19.30;12.27;;;;;;;10.43;100.00;101598.28;5087881;28;20066;-70
2023/05/13 01:02:09;;;;;;;20.80;13.23;;;;;;;10.43;100.00;101601.06;5095959;28;20048;-70
2023/05/13 01:04:42;;;;;;;28.08;12.82;;;;;;;10.44;100.00;101599.09;5087992;28;20044;-71
2023/05/13 01:07:09;;;;;;;19.52;12.55;;;;;;;10.44;100.00;101593.53;5085324;28;20207;-72
2023/05/13 01:10:02;;;;;;;24.40;13.15;;;;;;;10.42;100.00;101593.09;5088943;28;20502;-71
2023/05/13 01:12:35;;;;;;;22.10;14.25;;;;;;;10.36;100.00;101595.50;5054502;28;20148;-72
2023/05/13 01:15:06;;;;;;;21.60;13.40;;;;;;;10.34;100.00;101592.31;5087669;28;20058;-73
2023/05/13 01:17:40;;;;;;;23.75;14.18;;;;;;;10.34;100.00;101592.31;5088518;28;20063;-72
2023/05/13 01:20:08;;;;;;;21.90;14.40;;;;;;;10.33;100.00;101587.16;5088417;28;20516;-70
2023/05/13 01:22:35;;;;;;;21.73;14.43;;;;;;;10.30;100.00;101585.97;5088890;28;20101;-73
2023/05/13 01:25:01;;;;;;;25.40;14.27;;;;;;;10.30;100.00;101588.75;5089387;28;20055;-71
2023/05/13 01:27:28;;;;;;;24.52;13.88;;;;;;;10.29;100.00;101586.38;5086999;28;20052;-72
2023/05/13 01:29:55;;;;;;;23.40;13.52;;;;;;;10.25;100.00;101588.31;5088327;28;20079;-72
2023/05/13 01:32:23;;;;;;;25.23;14.65;;;;;;;10.21;100.00;101591.09;5088420;28;20048;-73
2023/05/13 01:34:51;;;;;;;25.40;13.98;;;;;;;10.19;100.00;101587.91;5069594;28;20432;-72
2023/05/13 01:37:19;;;;;;;21.20;13.38;;;;;;;10.14;100.00;101593.88;5088441;28;20059;-72
2023/05/13 01:39:46;;;;;;;24.20;13.38;;;;;;;10.06;100.00;101585.91;5085596;28;20137;-72
2023/05/13 01:42:13;;;;;;;22.38;13.80;;;;;;;10.08;100.00;101589.88;5083979;28;20071;-71
2023/05/13 01:44:39;;;;;;;22.25;14.00;;;;;;;10.07;100.00;101589.06;5086041;28;20063;-71
2023/05/13 01:47:06;;;;;;;24.35;15.32;;;;;;;10.05;100.00;101590.66;5089485;28;20047;-72
2023/05/13 01:49:32;;;;;;;27.63;13.88;;;;;;;10.01;100.00;101589.88;5091975;28;20052;-71
2023/05/13 01:51:59;;;;;;;22.60;12.63;;;;;;;9.99;100.00;101595.81;5087721;28;20078;-70
2023/05/13 01:54:25;;;;;;;24.63;16.60;;;;;;;9.97;100.00;101594.59;5087291;28;20048;-70
2023/05/13 01:56:52;;;;;;;20.65;12.93;;;;;;;9.91;100.00;101594.19;5088755;28;20438;-70
2023/05/13 01:59:18;;;;;;;24.30;12.93;;;;;;;9.91;100.00;101593.38;5085095;28;20044;-70
2023/05/13 02:01:45;;;;;;;27.80;12.57;;;;;;;9.88;100.00;101591.38;5084424;28;20052;-74
2023/05/13 02:04:11;;;;;;;19.63;12.70;;;;;;;9.84;100.00;101594.16;5080705;28;20048;-70
2023/05/13 02:06:38;;;;;;;23.40;12.93;;;;;;;9.80;100.00;101600.88;5084268;28;20569;-70
2023/05/13 02:09:04;;;;;;;20.92;13.65;;;;;;;9.77;100.00;101583.03;5087629;28;20048;-71
2023/05/13 02:11:31;;;;;;;20.80;13.63;;;;;;;9.74;100.00;101597.69;5093573;28;20048;-70
2023/05/13 02:13:57;;;;;;;23.67;13.90;;;;;;;9.72;100.00;101600.06;5087944;28;20094;-70
2023/05/13 02:16:24;;;;;;;22.88;13.70;;;;;;;9.70;100.00;101596.06;5088660;28;20070;-70
2023/05/13 02:18:50;;;;;;;23.38;13.32;;;;;;;9.69;100.00;101597.28;5088358;28;20048;-70
2023/05/13 02:21:17;;;;;;;25.33;14.30;;;;;;;9.66;100.00;101590.50;5080457;28;20399;-71
2023/05/13 02:23:43;;;;;;;23.77;14.60;;;;;;;9.66;100.00;101598.06;5089956;28;20052;-71
2023/05/13 02:26:10;;;;;;;22.50;13.90;;;;;;;9.61;100.00;101595.63;5088232;28;20044;-71
2023/05/13 02:28:36;;;;;;;22.45;14.55;;;;;;;9.63;100.00;101596.81;5088527;28;20459;-70
2023/05/13 02:31:03;;;;;;;21.77;14.15;;;;;;;9.60;100.00;101602.38;5077929;28;20052;-70
2023/05/13 02:33:29;;;;;;;28.08;14.88;;;;;;;9.57;100.00;101592.06;5088316;28;20067;-71
2023/05/13 02:35:56;;;;;;;21.17;14.65;;;;;;;9.52;100.00;101596.00;5087727;28;20050;-71
2023/05/13 02:38:22;;;;;;;24.75;15.77;;;;;;;9.49;100.00;101604.31;5085192;28;20055;-71
2023/05/13 02:40:49;;;;;;;22.42;14.88;;;;;;;9.47;100.00;101601.94;5087844;28;20058;-71
2023/05/13 02:43:16;;;;;;;23.10;13.60;;;;;;;9.44;100.00;101601.91;5079811;28;20051;-70
2023/05/13 02:45:42;;;;;;;23.40;13.18;;;;;;;9.40;100.00;101599.13;5088041;28;20438;-71
2023/05/13 02:48:09;;;;;;;22.27;13.43;;;;;;;9.38;100.00;101598.69;5087280;28;20089;-70
2023/05/13 02:50:36;;;;;;;24.52;13.98;;;;;;;9.34;100.00;101600.66;5088427;28;20055;-71
2023/05/13 02:53:03;;;;;;;21.70;12.70;;;;;;;9.27;100.00;101595.06;5084668;28;20051;-70
2023/05/13 02:55:29;;;;;;;23.65;13.98;;;;;;;9.20;100.00;101595.03;5085067;28;20059;-71
2023/05/13 02:57:56;;;;;;;24.52;13.90;;;;;;;9.07;100.00;101598.50;5086099;28;20128;-70
2023/05/13 03:00:22;;;;;;;22.20;14.18;;;;;;;8.92;100.00;101594.03;5086059;28;20051;-71
2023/05/13 03:02:49;;;;;;;23.08;13.45;;;;;;;8.79;100.00;101599.09;5085981;28;20055;-70
2023/05/13 03:05:16;;;;;;;24.55;14.63;;;;;;;8.82;100.00;101601.09;5079743;28;20143;-69
2023/05/13 03:07:42;;;;;;;27.33;15.05;;;;;;;8.87;100.00;101600.75;5085576;28;20047;-71
2023/05/13 03:10:09;;;;;;;26.38;15.32;;;;;;;8.89;100.00;101605.91;5087543;28;20048;-70
2023/05/13 03:12:36;;;;;;;24.17;15.30;;;;;;;8.93;100.00;101601.19;5086540;28;20108;-70
2023/05/13 03:15:03;;;;;;;23.08;16.25;;;;;;;8.93;100.00;101609.50;5086392;28;20048;-71
2023/05/13 03:17:30;;;;;;;26.23;15.55;;;;;;;8.95;100.00;101612.69;5087337;28;20502;-71
2023/05/13 03:19:57;;;;;;;25.38;15.30;;;;;;;8.94;100.00;101608.31;5087142;28;20108;-72
2023/05/13 03:22:23;;;;;;;22.90;14.13;;;;;;;8.91;100.00;101609.88;5086882;28;20466;-71
2023/05/13 03:24:50;;;;;;;23.95;14.77;;;;;;;8.87;100.00;101594.38;5084229;28;20051;-70
2023/05/13 03:27:18;;;;;;;23.65;14.55;;;;;;;8.85;100.00;101594.00;5085807;28;20047;-70
2023/05/13 03:29:44;;;;;;;21.98;15.38;;;;;;;8.80;100.00;101586.00;5087217;28;20063;-70
2023/05/13 03:32:11;;;;;;;25.35;15.63;;;;;;;8.78;100.00;101585.63;5086154;28;20051;-71
2023/05/13 03:34:37;;;;;;;25.63;15.35;;;;;;;8.79;100.00;101588.00;5083942;28;20063;-71
2023/05/13 03:37:04;;;;;;;27.02;16.30;;;;;;;8.83;100.00;101591.59;5086041;28;20776;-71
2023/05/13 03:39:30;;;;;;;25.73;16.52;;;;;;;8.85;100.00;101594.00;5086404;28;20139;-71
2023/05/13 03:41:57;;;;;;;27.92;17.00;;;;;;;8.84;100.00;101597.94;5083905;28;20054;-69
2023/05/13 03:44:23;;;;;;;24.45;15.30;;;;;;;8.81;100.00;101598.72;5084534;28;20669;-72
2023/05/13 03:46:50;;;;;;;27.38;15.85;;;;;;;8.78;100.00;101600.25;5085914;28;20511;-71
2023/05/13 03:49:17;;;;;;;25.92;16.05;;;;;;;8.76;100.00;101593.50;5087109;28;20105;-71
2023/05/13 03:51:44;;;;;;;25.83;16.35;;;;;;;8.74;100.00;101604.22;5088633;28;20127;-72
2023/05/13 03:54:10;;;;;;;25.15;16.30;;;;;;;8.73;100.00;101602.59;5085857;28;20130;-72
2023/05/13 03:56:37;;;;;;;27.00;15.48;;;;;;;8.73;100.00;101603.41;5086300;28;20047;-71
2023/05/13 03:59:03;;;;;;;25.80;15.55;;;;;;;8.72;100.00;101601.00;5085737;28;20059;-71
2023/05/13 04:01:30;;;;;;;25.58;15.65;;;;;;;8.70;100.00;101603.34;5084304;28;20062;-73
2023/05/13 04:03:56;;;;;;;22.17;14.88;;;;;;;8.67;100.00;101596.63;5086793;28;20056;-72
2023/05/13 04:06:23;;;;;;;24.52;15.45;;;;;;;8.69;100.00;101610.09;5087062;28;20044;-71
2023/05/13 04:08:50;;;;;;;28.63;14.90;;;;;;;8.69;100.00;101605.34;5083984;28;20048;-72
2023/05/13 04:11:16;;;;;;;25.38;14.63;;;;;;;8.63;100.00;101606.06;5079087;28;20379;-72
2023/05/13 04:13:44;;;;;;;23.95;15.93;;;;;;;8.61;100.00;101612.00;5083394;28;20048;-73
2023/05/13 04:16:11;;;;;;;24.92;15.18;;;;;;;8.62;100.00;101612.81;5084441;28;20052;-71
2023/05/13 04:18:37;;;;;;;23.10;14.85;;;;;;;8.64;100.00;101608.47;5083364;28;20048;-72
2023/05/13 04:21:08;;;;;;;24.63;15.15;;;;;;;8.66;100.00;101617.22;5085740;28;20048;-71
2023/05/13 04:23:34;;;;;;;23.90;15.32;;;;;;;8.68;100.00;101619.59;5085290;28;20797;-71
2023/05/13 04:26:01;;;;;;;28.10;16.25;;;;;;;8.69;100.00;101621.19;5086207;28;20134;-73
2023/05/13 04:28:28;;;;;;;23.00;14.95;;;;;;;8.71;100.00;101613.28;5071509;28;20474;-69
2023/05/13 04:30:54;;;;;;;26.58;15.10;;;;;;;8.72;100.00;101612.09;5074586;28;20048;-71
2023/05/13 04:33:21;;;;;;;25.42;15.77;;;;;;;8.71;100.00;101622.38;5070902;28;20130;-73
2023/05/13 04:35:48;;;;;;;22.88;15.45;;;;;;;8.70;100.00;101620.00;5071403;28;20084;-71
2023/05/13 04:38:14;;;;;;;28.45;15.75;;;;;;;8.74;100.00;101623.63;5086792;28;20040;-71
2023/05/13 04:40:42;;;;;;;26.70;15.82;;;;;;;8.77;100.00;101615.31;5089314;28;20464;-72
2023/05/13 04:43:10;;;;;;;25.17;15.93;;;;;;;8.80;100.00;101630.38;5088862;28;20054;-71
2023/05/13 04:45:38;;;;;;;25.65;16.15;;;;;;;8.85;100.00;101625.28;5089619;28;20048;-71
2023/05/13 04:48:04;;;;;;;25.35;16.05;;;;;;;8.86;100.00;101621.34;5085097;28;20052;-73
2023/05/13 04:50:31;;;;;;;25.20;15.10;;;;;;;8.87;100.00;101624.88;5086489;28;20076;-71
2023/05/13 04:52:58;;;;;;;24.58;16.52;;;;;;;8.87;100.00;101625.69;5089382;28;20511;-71
2023/05/13 04:55:24;;;;;;;24.38;15.23;;;;;;;8.94;100.00;101638.81;5070963;28;20051;-71
2023/05/13 04:57:53;;;;;;;23.38;15.50;;;;;;;8.98;100.00;101639.66;5089735;28;20127;-71
2023/05/13 05:00:19;;;;;;;24.05;15.80;;;;;;;9.00;100.00;101638.09;5089780;28;20513;-73
2023/05/13 05:02:47;;;;;;;25.08;16.13;;;;;;;9.06;100.00;101632.97;5088785;28;20048;-71
2023/05/13 05:05:13;;;;;;;25.30;16.73;;;;;;;9.08;100.00;101636.16;5087944;28;20074;-69
2023/05/13 05:07:43;;;;;;;28.50;16.73;;;;;;;9.17;100.00;101644.94;5087764;28;20070;-71
2023/05/13 05:10:10;;;;;;;30.30;17.85;;;;;;;9.24;100.00;101647.75;5088829;28;20056;-72
2023/05/13 05:12:37;;;;;;;23.23;16.13;;;;;;;9.29;100.00;101648.19;5086975;28;20048;-72
2023/05/13 05:15:04;;;;;;;27.27;16.05;;;;;;;9.36;100.00;101647.44;5088259;28;20419;-72
2023/05/13 05:17:34;;;;;;;24.20;16.52;;;;;;;9.42;100.00;101645.91;5089130;28;20052;-71
2023/05/13 05:20:00;;;;;;;25.48;16.30;;;;;;;9.48;100.00;101652.66;5087747;28;20052;-72
2023/05/13 05:22:27;;;;;;;27.13;17.02;;;;;;;9.54;100.00;101656.69;5091394;28;20059;-73
2023/05/13 05:24:53;;;;;;;24.95;17.20;;;;;;;9.61;100.00;101651.16;5086793;28;20172;-73
2023/05/13 05:27:20;;;;;;;26.75;16.95;;;;;;;9.67;100.00;101650.41;5089210;28;20068;-72
2023/05/13 05:29:46;;;;;;;25.83;16.40;;;;;;;9.73;100.00;101662.72;5069941;28;20521;-71
2023/05/13 05:32:13;;;;;;;27.15;15.63;;;;;;;9.75;100.00;101654.00;5087356;28;20059;-73
2023/05/13 05:34:39;;;;;;;26.60;17.67;;;;;;;9.81;100.00;101666.34;5094989;28;20405;-71
2023/05/13 05:37:06;;;;;;;25.85;17.77;;;;;;;9.90;100.00;101661.25;5089486;28;20414;-72
2023/05/13 05:39:34;;;;;;;30.33;20.45;;;;;;;10.01;100.00;101678.78;5088162;28;20541;-72
2023/05/13 05:42:00;;;;;;;26.35;18.17;;;;;;;10.13;100.00;101680.41;5083665;28;20139;-72
2023/05/13 05:44:27;;;;;;;28.77;18.58;;;;;;;10.22;100.00;101678.84;5086118;28;20048;-72
2023/05/13 05:46:54;;;;;;;25.92;18.38;;;;;;;10.33;100.00;101678.88;5088800;28;20059;-73
2023/05/13 05:49:20;;;;;;;31.52;21.52;;;;;;;10.44;100.00;101671.38;5088249;28;20056;-72
2023/05/13 05:51:47;;;;;;;30.75;20.48;;;;;;;10.56;100.00;101676.56;5087139;28;20430;-71
2023/05/13 05:54:13;;;;;;;29.80;20.13;;;;;;;10.63;100.00;101666.22;5069819;28;20051;-72
2023/05/13 05:56:40;;;;;;;27.30;19.48;;;;;;;10.77;100.00;101665.47;5087911;28;20059;-72
2023/05/13 05:59:06;;;;;;;31.92;19.45;;;;;;;10.87;100.00;101670.25;5087301;28;20067;-73
2023/05/13 06:01:35;;;;;;;29.73;18.65;;;;;;;10.98;100.00;101673.81;5086999;28;20094;-72
2023/05/13 06:04:02;;;;;;;29.23;19.55;;;;;;;11.06;100.00;101670.63;5086903;28;20040;-71
2023/05/13 06:06:31;;;;;;;30.48;19.13;;;;;;;11.13;100.00;101656.72;5086961;28;20146;-72
2023/05/13 06:08:57;;;;;;;28.30;18.33;;;;;;;11.25;100.00;101670.28;5069504;28;20052;-71
2023/05/13 06:11:24;;;;;;;29.48;19.52;;;;;;;11.33;100.00;101668.25;5086951;28;20048;-73
2023/05/13 06:13:50;;;;;;;31.25;19.42;;;;;;;11.45;100.00;101670.63;5086267;28;20047;-72
2023/05/13 06:16:16;;;;;;;27.38;18.90;;;;;;;11.56;100.00;101665.81;5094941;28;20723;-71
2023/05/13 06:18:43;;;;;;;28.00;18.23;;;;;;;11.65;100.00;101661.41;5090292;28;20121;-71
2023/05/13 06:21:10;;;;;;;29.83;17.88;;;;;;;11.79;100.00;101666.16;5087293;28;20117;-72
2023/05/13 06:23:36;;;;;;;23.17;16.00;;;;;;;11.90;100.00;101667.72;5089292;28;20048;-72
2023/05/13 06:26:03;;;;;;;25.02;15.55;;;;;;;11.98;100.00;101662.88;5087835;28;20098;-72
2023/05/13 06:28:29;;;;;;;25.08;14.38;;;;;;;12.06;100.00;101673.59;5081106;28;20510;-70
2023/05/13 06:30:56;;;;;;;23.10;13.85;;;;;;;12.18;100.00;101669.56;5081921;28;20048;-72
2023/05/13 06:33:22;;;;;;;20.35;13.38;;;;;;;12.24;100.00;101663.19;5087024;28;20083;-72
2023/05/13 06:35:49;;;;;;;22.92;14.35;;;;;;;12.36;100.00;101675.91;5087409;28;20540;-71
2023/05/13 06:38:18;;;;;;;19.58;12.57;;;;;;;12.43;100.00;101673.84;5082297;28;20135;-72
2023/05/13 06:40:45;;;;;;;20.02;12.45;;;;;;;12.54;100.00;101682.16;5087029;28;20078;-73
2023/05/13 06:43:13;;;;;;;24.85;13.60;;;;;;;12.56;100.00;101670.59;5085059;28;20052;-71
2023/05/13 06:45:40;;;;;;;22.70;12.70;;;;;;;12.68;100.00;101690.44;5085231;28;20055;-74
2023/05/13 06:48:07;;;;;;;20.45;12.57;;;;;;;12.73;100.00;101678.06;5086495;28;20499;-71
2023/05/13 06:50:33;;;;;;;20.35;10.95;;;;;;;12.84;100.00;101689.94;5061769;28;20051;-73
2023/05/13 06:53:00;;;;;;;17.27;10.85;;;;;;;12.90;100.00;101689.09;5087115;28;20048;-73
2023/05/13 06:55:26;;;;;;;23.20;13.18;;;;;;;12.94;100.00;101686.28;5083638;28;20055;-71
2023/05/13 06:57:53;;;;;;;18.88;11.90;;;;;;;13.03;100.00;101684.59;5087686;28;20054;-72
2023/05/13 07:00:20;;;;;;;20.17;12.90;;;;;;;13.16;100.00;101687.69;5083223;28;20047;-72
2023/05/13 07:02:46;;;;;;;19.90;12.40;;;;;;;13.27;100.00;101682.81;5086627;28;20059;-71
2023/05/13 07:05:13;;;;;;;23.98;12.68;;;;;;;13.41;100.00;101689.06;5084498;28;20067;-71
2023/05/13 07:07:39;;;;;;;19.70;11.43;;;;;;;13.53;100.00;101673.78;5086421;28;20422;-73
2023/05/13 07:10:06;;;;;;;19.15;12.45;;;;;;;13.68;100.00;101681.63;5086216;28;20043;-72
2023/05/13 07:12:33;;;;;;;22.02;12.13;;;;;;;13.79;100.00;101678.69;5084097;28;20142;-71
2023/05/13 07:14:59;;;;;;;20.38;11.32;;;;;;;13.92;100.00;101682.53;5085014;28;20052;-72
2023/05/13 07:17:26;;;;;;;23.27;12.02;;;;;;;14.06;100.00;101679.56;5086022;28;20067;-71
2023/05/13 07:19:53;;;;;;;21.33;11.05;;;;;;;14.16;100.00;101670.25;5084973;28;20054;-72
2023/05/13 07:22:19;;;;;;;19.58;11.93;;;;;;;14.26;100.00;101672.94;5086475;28;20437;-71
2023/05/13 07:24:46;;;;;;;21.95;10.57;;;;;;;14.37;100.00;101669.97;5086658;28;20055;-71
2023/05/13 07:27:12;;;;;;;19.02;10.52;;;;;;;14.50;100.00;101669.03;5085627;28;20059;-72
2023/05/13 07:29:39;;;;;;;18.00;10.80;;;;;;;14.59;100.00;101671.28;5087267;28;20051;-70
2023/05/13 07:32:06;;;;;;;18.60;10.52;;;;;;;14.70;100.00;101669.13;5085813;28;20083;-72
2023/05/13 07:34:32;;;;;;;18.00;10.23;;;;;;;14.80;100.00;101668.16;5082525;28;20047;-72
2023/05/13 07:36:59;;;;;;;17.58;10.23;;;;;;;14.86;100.00;101677.66;5087198;28;20052;-73
2023/05/13 07:39:26;;;;;;;18.70;10.90;;;;;;;14.97;100.00;101675.50;5086349;28;20048;-75
2023/05/13 07:41:53;;;;;;;18.13;10.70;;;;;;;15.07;100.00;101671.72;5084850;28;20047;-71
2023/05/13 07:44:19;;;;;;;24.67;10.90;;;;;;;15.17;100.00;101675.56;5086632;28;20059;-73
2023/05/13 07:46:47;;;;;;;21.30;11.40;;;;;;;15.19;100.00;101656.31;5063004;28;20056;-71
2023/05/13 07:49:14;;;;;;;23.38;10.68;;;;;;;15.31;100.00;101669.69;5083912;28;20040;-74
2023/05/13 07:51:40;;;;;;;17.52;10.57;;;;;;;15.40;100.00;101662.38;5062306;28;20048;-72
2023/05/13 07:54:08;;;;;;;19.48;10.93;;;;;;;15.49;100.00;101656.97;5086663;28;20052;-73
2023/05/13 07:56:36;;;;;;;26.52;9.85;;;;;;;15.59;100.00;101658.03;5085276;28;20071;-73
2023/05/13 07:59:03;;;;;;;15.52;8.48;;;;;;;15.71;100.00;101658.16;5086304;28;20040;-73
2023/05/13 08:01:30;;;;;;;18.00;9.30;;;;;;;15.77;100.00;101655.66;5088241;28;20052;-73
2023/05/13 08:03:57;;;;;;;17.73;9.13;;;;;;;15.89;100.00;101658.59;5087881;28;20056;-71
2023/05/13 08:06:23;;;;;;;17.88;9.45;;;;;;;15.99;100.00;101657.59;5072889;28;20127;-73
2023/05/13 08:08:50;;;;;;;15.68;7.80;;;;;;;16.08;100.00;101663.41;5088304;28;20694;-72
2023/05/13 08:11:16;;;;;;;15.18;8.20;;;;;;;16.20;100.00;101659.94;5081787;28;20502;-73
2023/05/13 08:13:43;;;;;;;17.85;8.13;;;;;;;16.29;100.00;101660.19;5087991;28;20048;-73
2023/05/13 08:16:09;;;;;;;15.07;7.68;;;;;;;16.42;100.00;101657.50;5089105;28;20054;-71
2023/05/13 08:18:36;;;;;;;15.38;7.75;;;;;;;16.53;100.00;101666.44;5090095;28;20044;-73
2023/05/13 08:21:02;;;;;;;15.27;8.38;;;;;;;16.59;100.00;101665.53;5088250;28;20054;-72
2023/05/13 08:23:29;;;;;;;16.13;8.20;;;;;;;16.65;100.00;101666.56;5066008;28;20415;-72
2023/05/13 08:26:09;;;;;;;14.45;7.60;;;;;;;16.74;100.00;101661.13;5087672;28;20054;-72
2023/05/13 08:28:36;;;;;;;16.63;8.57;;;;;;;16.81;100.00;101654.56;5088962;28;20052;-73
2023/05/13 08:31:03;;;;;;;15.88;8.75;;;;;;;16.95;100.00;101657.03;5087297;28;20051;-73
2023/05/13 08:33:30;;;;;;;15.48;7.88;;;;;;;16.98;100.00;101659.75;5066465;28;20435;-72
2023/05/13 08:35:59;;;;;;;15.70;7.32;;;;;;;17.09;100.00;101660.25;5088155;28;20051;-72
2023/05/13 08:38:25;;;;;;;15.35;7.68;;;;;;;17.18;100.00;101649.22;5088289;28;20058;-73
2023/05/13 08:40:52;;;;;;;15.82;6.95;;;;;;;17.26;100.00;101645.00;5089430;28;20808;-72
2023/05/13 08:43:19;;;;;;;14.32;6.60;;;;;;;17.36;100.00;101649.53;5086373;28;20048;-72
2023/05/13 08:45:46;;;;;;;16.33;7.15;;;;;;;17.49;100.00;101649.63;5086221;28;20055;-73
2023/05/13 08:48:18;;;;;;;13.60;6.93;;;;;;;17.60;100.00;101649.31;5089728;28;20052;-71
2023/05/13 08:50:45;;;;;;;12.07;6.25;;;;;;;17.71;100.00;101642.16;5084720;28;20058;-72
2023/05/13 08:53:12;;;;;;;11.57;6.30;;;;;;;17.82;100.00;101651.09;5065050;28;20105;-71
2023/05/13 08:55:41;;;;;;;11.52;6.03;;;;;;;17.96;100.00;101655.56;5084343;28;20052;-71
2023/05/13 08:58:08;;;;;;;17.80;6.10;;;;;;;18.04;100.00;101657.72;5089622;28;20054;-71
2023/05/13 09:00:34;;;;;;;11.95;6.05;;;;;;;18.15;100.00;101651.75;5070090;28;20061;-71
2023/05/13 09:03:01;;;;;;;13.48;5.78;;;;;;;18.24;100.00;101654.72;5088079;28;20426;-72
2023/05/13 09:05:28;;;;;;;16.38;5.72;;;;;;;18.30;100.00;101655.75;5088148;28;20048;-72
2023/05/13 09:07:55;;;;;;;12.82;5.95;;;;;;;18.33;100.00;101652.81;5089081;28;20040;-71
2023/05/13 09:10:21;;;;;;;13.05;5.55;;;;;;;18.42;100.00;101657.78;5076227;28;20503;-71
2023/05/13 09:12:53;;;;;;;17.65;6.30;;;;;;;18.53;100.00;101655.44;5081791;28;20052;-72
2023/05/13 09:15:22;;;;;;;11.82;5.63;;;;;;;18.61;100.00;101648.34;5081950;28;20048;-71
2023/05/13 09:17:54;;;;;;;13.25;6.13;;;;;;;18.66;100.00;101653.38;5083402;28;20041;-72
2023/05/13 09:20:24;;;;;;;15.30;5.90;;;;;;;18.67;100.00;101650.13;5087160;28;20059;-72
2023/05/13 09:22:53;;;;;;;10.38;5.07;;;;;;;18.77;100.00;101657.47;5070062;28;20081;-73
2023/05/13 09:25:22;;;;;;;8.25;4.97;;;;;;;18.83;100.00;101654.88;5081011;28;20052;-74
2023/05/13 09:27:54;;;;;;;13.60;5.72;;;;;;;18.96;100.00;101655.66;5086065;28;20100;-72
2023/05/13 09:30:20;;;;;;;11.95;5.13;;;;;;;19.03;100.00;101644.94;5076713;28;20067;-73
2023/05/13 09:33:04;;;;;;;16.58;6.25;;;;;;;19.12;100.00;101647.06;5080926;28;20052;-72
2023/05/13 09:35:31;;;;;;;16.65;7.75;;;;;;;19.19;100.00;101646.81;5073865;28;20506;-74
2023/05/13 09:37:58;;;;;;;14.35;6.00;;;;;;;19.30;100.00;101635.97;5072339;28;20052;-73
2023/05/13 09:40:25;;;;;;;13.80;5.78;;;;;;;19.34;100.00;101631.00;5075168;28;20054;-74
2023/05/13 09:42:57;;;;;;;13.68;5.68;;;;;;;19.46;100.00;101638.63;5076256;28;20044;-74
2023/05/13 09:45:25;;;;;;;10.13;4.20;;;;;;;19.46;100.00;101628.13;5077220;28;20055;-74
2023/05/13 09:47:53;;;;;;;15.23;5.22;;;;;;;19.55;100.00;101630.28;5079597;28;20051;-71
2023/05/13 09:50:20;;;;;;;15.57;6.35;;;;;;;19.57;100.00;101624.94;5076380;28;20048;-71
2023/05/13 09:52:48;;;;;;;11.35;5.28;;;;;;;19.67;100.00;101615.31;5071144;28;20094;-71
2023/05/13 09:55:14;;;;;;;13.10;4.97;;;;;;;19.77;100.00;101627.47;5080661;28;20051;-73
2023/05/13 09:57:41;;;;;;;11.75;5.72;;;;;;;19.73;100.00;101621.94;5085116;28;20048;-73
2023/05/13 10:00:08;;;;;;;10.50;5.68;;;;;;;19.83;100.00;101626.41;5082529;28;20055;-73
2023/05/13 10:02:47;;;;;;;14.73;5.70;;;;;;;19.92;100.00;101614.41;5058079;28;20040;-72
2023/05/13 10:05:14;;;;;;;10.90;5.30;;;;;;;20.05;100.00;101615.88;5078207;28;21244;-72
2023/05/13 10:07:40;;;;;;;13.43;5.20;;;;;;;20.16;100.00;101619.09;5072823;28;20118;-72
2023/05/13 10:10:08;;;;;;;11.88;5.50;;;;;;;20.32;100.00;101610.41;5075535;28;20056;-72
2023/05/13 10:12:38;;;;;;;9.63;5.25;;;;;;;20.44;100.00;101608.72;5071552;28;20135;-71
2023/05/13 10:15:06;;;;;;;11.10;5.65;;;;;;;20.51;100.00;101614.09;5071100;28;20058;-72
2023/05/13 10:17:34;;;;;;;12.85;5.22;;;;;;;20.52;100.00;101613.63;5074287;28;20709;-72
2023/05/13 10:20:03;;;;;;;11.27;5.50;;;;;;;20.54;100.00;101605.50;5079970;28;20142;-73
2023/05/13 10:22:33;;;;;;;16.08;6.03;;;;;;;20.63;100.00;101608.34;5079351;28;20062;-72
2023/05/13 10:25:02;;;;;;;9.77;5.22;;;;;;;20.74;100.00;101605.88;5080339;28;20779;-73
2023/05/13 10:27:30;;;;;;;12.38;5.55;;;;;;;20.79;97.87;101596.75;5081928;28;20083;-73
2023/05/13 10:29:58;;;;;;;11.23;5.40;;;;;;;20.90;95.54;101604.81;5080830;28;20040;-72
2023/05/13 10:32:29;;;;;;;10.98;5.38;;;;;;;20.96;96.94;101594.50;5077560;28;20102;-74
2023/05/13 10:35:03;;;;;;;12.82;5.40;;;;;;;21.01;98.33;101583.34;5084820;28;20051;-71
2023/05/13 10:37:46;;;;;;;10.65;5.18;;;;;;;21.12;95.38;101586.50;5079112;28;20060;-73
2023/05/13 10:40:41;;;;;;;11.02;5.07;;;;;;;21.29;100.00;101590.59;5083241;28;20071;-73
2023/05/13 10:43:20;;;;;;;11.32;5.80;;;;;;;21.34;95.72;101589.97;5085774;28;20054;-74
2023/05/13 10:45:54;;;;;;;7.22;3.40;;;;;;;21.40;95.91;101584.47;5087635;28;20052;-75
2023/05/13 10:48:22;;;;;;;11.85;5.20;;;;;;;21.53;97.21;101566.06;5079637;28;20071;-75
2023/05/13 10:50:59;;;;;;;10.20;4.60;;;;;;;21.54;91.04;101587.44;5085368;28;20582;-76
2023/05/13 10:53:31;;;;;;;9.60;4.35;;;;;;;21.54;89.85;101586.66;5084100;28;20063;-76
2023/05/13 10:55:58;;;;;;;17.88;5.68;;;;;;;21.65;90.99;101570.81;5086722;28;20141;-76
2023/05/13 10:58:31;;;;;;;10.07;5.00;;;;;;;21.78;93.05;101571.38;5067143;28;20049;-77
2023/05/13 11:01:28;;;;;;;10.65;5.22;;;;;;;22.00;92.20;101574.81;5065053;28;20506;-77
2023/05/13 11:04:00;;;;;;;12.60;5.25;;;;;;;22.13;87.08;101574.59;5086000;28;20044;-78
2023/05/13 11:06:34;;;;;;;9.93;4.65;;;;;;;22.26;89.42;101569.53;5084907;28;20055;-80
2023/05/13 11:09:04;;;;;;;12.60;4.72;;;;;;;22.33;87.04;101563.56;5087070;28;20070;-78